createdAt,value
2023-03-06T00:00:54.773Z,8.73
2023-03-06T00:03:26.321Z,7.43
2023-03-06T00:05:57.333Z,8.67
2023-03-06T00:08:32.723Z,7.97
2023-03-06T00:11:01.540Z,7.73
2023-03-06T00:13:32.195Z,7.00
2023-03-06T00:16:02.288Z,6.50
2023-03-06T00:18:37.215Z,6.20
2023-03-06T00:21:09.734Z,6.80
2023-03-06T00:23:41.421Z,8.23
2023-03-06T00:26:17.906Z,6.13
2023-03-06T00:28:53.571Z,8.47
2023-03-06T00:31:23.414Z,6.50
2023-03-06T00:33:57.642Z,7.30
2023-03-06T00:36:41.865Z,5.23
2023-03-06T00:39:12.139Z,6.27
2023-03-06T00:41:47.128Z,8.73
2023-03-06T00:44:22.612Z,6.57
2023-03-06T00:46:55.869Z,6.87
2023-03-06T00:49:27.155Z,6.27
2023-03-06T00:51:57.987Z,6.90
2023-03-06T00:54:28.413Z,7.33
2023-03-06T00:56:59.140Z,8.23
2023-03-06T00:59:31.770Z,6.37
2023-03-06T01:02:03.252Z,6.97
2023-03-06T01:04:32.336Z,7.07
2023-03-06T01:07:01.788Z,6.23
2023-03-06T01:09:32.279Z,8.43
2023-03-06T01:12:01.500Z,6.30
2023-03-06T01:14:35.153Z,5.23
2023-03-06T01:17:04.202Z,6.30
2023-03-06T01:22:20.027Z,6.23
2023-03-06T01:24:55.018Z,8.27
2023-03-06T01:27:23.912Z,7.10
2023-03-06T01:29:57.164Z,7.83
2023-03-06T01:32:28.871Z,6.47
2023-03-06T01:34:57.808Z,8.27
2023-03-06T01:37:27.024Z,7.03
2023-03-06T01:40:00.624Z,7.87
2023-03-06T01:42:37.532Z,6.50
2023-03-06T01:45:10.610Z,8.10
2023-03-06T01:47:41.701Z,5.97
2023-03-06T01:50:13.596Z,8.40
2023-03-06T01:52:59.527Z,7.00
2023-03-06T01:55:35.485Z,8.20
2023-03-06T01:58:09.102Z,7.27
2023-03-06T02:00:45.134Z,8.17
2023-03-06T02:03:22.947Z,7.73
2023-03-06T02:06:03.444Z,7.80
2023-03-06T02:08:33.815Z,7.00
2023-03-06T02:11:13.485Z,7.43
2023-03-06T02:13:45.992Z,10.60
2023-03-06T02:16:20.594Z,6.40
2023-03-06T02:18:53.876Z,8.23
2023-03-06T02:21:26.799Z,8.33
2023-03-06T02:24:21.003Z,6.33
2023-03-06T02:26:55.255Z,7.33
2023-03-06T02:29:29.893Z,8.13
2023-03-06T02:31:59.440Z,7.43
2023-03-06T02:34:55.192Z,8.53
2023-03-06T02:37:27.457Z,8.40
2023-03-06T02:40:15.386Z,9.03
2023-03-06T02:42:56.532Z,8.93
2023-03-06T02:45:31.725Z,7.37
2023-03-06T02:48:04.542Z,8.73
2023-03-06T02:50:39.447Z,8.93
2023-03-06T02:53:11.444Z,8.87
2023-03-06T02:55:42.016Z,8.43
2023-03-06T02:58:16.848Z,9.80
2023-03-06T03:00:46.591Z,9.93
2023-03-06T03:03:15.782Z,9.67
2023-03-06T03:05:47.996Z,9.53
2023-03-06T03:08:22.023Z,9.80
2023-03-06T03:10:51.831Z,10.10
2023-03-06T03:13:22.146Z,10.17
2023-03-06T03:16:09.120Z,8.73
2023-03-06T03:18:40.743Z,9.53
2023-03-06T03:21:11.704Z,10.23
2023-03-06T03:23:41.194Z,9.63
2023-03-06T03:26:18.861Z,10.53
2023-03-06T03:28:51.896Z,12.27
2023-03-06T03:31:27.131Z,10.70
2023-03-06T03:34:03.524Z,11.70
2023-03-06T03:36:36.843Z,11.53
2023-03-06T03:39:06.608Z,12.30
2023-03-06T03:41:36.013Z,13.13
2023-03-06T03:44:18.577Z,10.63
2023-03-06T03:46:49.919Z,14.23
2023-03-06T03:49:21.709Z,11.63
2023-03-06T03:51:50.858Z,13.87
2023-03-06T03:54:21.795Z,12.40
2023-03-06T03:56:51.109Z,12.53
2023-03-06T03:59:32.107Z,10.70
2023-03-06T04:02:05.795Z,11.50
2023-03-06T04:04:40.056Z,12.17
2023-03-06T04:07:09.122Z,12.93
2023-03-06T04:09:38.418Z,11.40
2023-03-06T04:12:13.783Z,11.07
2023-03-06T04:14:44.663Z,13.50
2023-03-06T04:17:25.241Z,10.57
2023-03-06T04:19:54.895Z,11.47
2023-03-06T04:22:25.512Z,10.53
2023-03-06T04:24:56.544Z,11.57
2023-03-06T04:27:27.455Z,9.23
2023-03-06T04:30:01.996Z,11.63
2023-03-06T04:32:31.036Z,13.33
2023-03-06T04:35:04.296Z,11.10
2023-03-06T04:37:33.500Z,12.20
2023-03-06T04:40:02.544Z,13.87
2023-03-06T04:42:35.044Z,10.87
2023-03-06T04:45:06.503Z,13.70
2023-03-06T04:47:41.513Z,12.50
2023-03-06T04:50:11.629Z,11.43
2023-03-06T04:52:48.600Z,14.80
2023-03-06T04:55:20.729Z,11.40
2023-03-06T04:57:51.012Z,13.33
2023-03-06T05:00:30.670Z,12.63
2023-03-06T05:03:04.869Z,11.87
2023-03-06T05:05:39.359Z,11.63
2023-03-06T05:08:09.976Z,13.73
2023-03-06T05:10:39.454Z,11.30
2023-03-06T05:13:09.151Z,11.73
2023-03-06T05:16:00.919Z,12.67
2023-03-06T05:18:32.109Z,11.80
2023-03-06T05:21:04.818Z,13.27
2023-03-06T05:23:35.722Z,12.07
2023-03-06T05:26:10.898Z,9.97
2023-03-06T05:28:55.547Z,12.60
2023-03-06T05:31:29.590Z,10.83
2023-03-06T05:34:02.195Z,11.70
2023-03-06T05:36:31.282Z,10.53
2023-03-06T05:39:00.385Z,11.50
2023-03-06T05:41:41.698Z,11.27
2023-03-06T05:44:10.862Z,10.83
2023-03-06T05:46:47.964Z,11.97
2023-03-06T05:49:17.445Z,10.60
2023-03-06T05:51:46.628Z,9.83
2023-03-06T05:54:18.070Z,9.87
2023-03-06T05:56:51.855Z,12.63
2023-03-06T05:59:30.829Z,10.13
2023-03-06T06:02:02.109Z,12.87
2023-03-06T06:04:31.529Z,11.83
2023-03-06T06:07:03.653Z,10.77
2023-03-06T06:09:33.991Z,11.60
2023-03-06T06:12:09.041Z,12.73
2023-03-06T06:14:38.335Z,12.30
2023-03-06T06:17:15.004Z,10.73
2023-03-06T06:19:48.712Z,12.43
2023-03-06T06:22:18.049Z,11.67
2023-03-06T06:24:59.999Z,13.87
2023-03-06T06:27:29.077Z,11.13
2023-03-06T06:30:01.138Z,14.03
2023-03-06T06:32:35.293Z,12.57
2023-03-06T06:35:07.819Z,13.57
2023-03-06T06:37:45.315Z,10.97
2023-03-06T06:40:17.968Z,10.93
2023-03-06T06:42:56.742Z,9.93
2023-03-06T06:45:25.664Z,11.30
2023-03-06T06:47:56.498Z,11.97
2023-03-06T06:50:28.225Z,12.90
2023-03-06T06:53:00.446Z,11.30
2023-03-06T06:55:44.230Z,11.63
2023-03-06T06:58:19.489Z,10.23
2023-03-06T07:00:54.222Z,8.90
2023-03-06T07:03:28.247Z,10.80
2023-03-06T07:05:59.327Z,9.57
2023-03-06T07:08:31.415Z,8.70
2023-03-06T07:11:02.347Z,10.87
2023-03-06T07:13:31.080Z,10.20
2023-03-06T07:15:59.812Z,10.33
2023-03-06T07:18:30.411Z,7.57
2023-03-06T07:21:08.270Z,9.67
2023-03-06T07:23:38.557Z,8.53
2023-03-06T07:26:07.471Z,9.30
2023-03-06T07:28:51.242Z,6.87
2023-03-06T07:31:22.883Z,6.57
2023-03-06T07:33:54.575Z,7.33
2023-03-06T07:36:24.951Z,5.73
2023-03-06T07:38:54.260Z,8.77
2023-03-06T07:41:22.936Z,5.47
2023-03-06T07:43:53.593Z,6.57
2023-03-06T07:46:22.359Z,5.20
2023-03-06T07:48:52.832Z,8.67
2023-03-06T07:51:25.472Z,5.50
2023-03-06T07:53:57.177Z,8.43
2023-03-06T07:56:25.986Z,6.47
2023-03-06T07:58:56.174Z,9.50
2023-03-06T08:01:26.966Z,4.77
2023-03-06T08:03:57.828Z,7.63
2023-03-06T08:06:30.006Z,5.37
2023-03-06T08:08:59.155Z,7.77
2023-03-06T08:11:29.991Z,5.90
2023-03-06T08:13:59.085Z,7.60
2023-03-06T08:16:30.968Z,6.23
2023-03-06T08:19:01.169Z,8.10
2023-03-06T08:21:30.021Z,6.03
2023-03-06T08:23:58.985Z,7.90
2023-03-06T08:26:34.652Z,5.40
2023-03-06T08:29:04.008Z,5.90
2023-03-06T08:31:34.667Z,5.73
2023-03-06T08:34:06.770Z,8.43
2023-03-06T08:36:35.714Z,5.80
2023-03-06T08:39:09.022Z,8.00
2023-03-06T08:41:38.687Z,6.30
2023-03-06T08:44:07.882Z,6.90
2023-03-06T08:46:37.341Z,6.37
2023-03-06T08:49:07.636Z,7.67
2023-03-06T08:51:37.154Z,5.90
2023-03-06T08:54:08.232Z,6.77
2023-03-06T08:56:37.003Z,6.00
2023-03-06T08:59:11.050Z,8.13
2023-03-06T09:01:40.277Z,5.70
2023-03-06T09:04:11.841Z,7.73
2023-03-06T09:06:45.637Z,6.57
2023-03-06T09:09:14.775Z,6.17
2023-03-06T09:11:45.526Z,6.43
2023-03-06T09:14:15.930Z,4.73
2023-03-06T09:16:46.792Z,5.50
2023-03-06T09:19:19.198Z,5.03
2023-03-06T09:21:48.619Z,6.13
2023-03-06T09:24:17.314Z,5.13
2023-03-06T09:26:47.671Z,7.80
2023-03-06T09:29:19.398Z,6.00
2023-03-06T09:31:48.282Z,4.90
2023-03-06T09:34:18.759Z,6.07
2023-03-06T09:36:55.983Z,5.30
2023-03-06T09:39:27.283Z,4.60
2023-03-06T09:41:58.681Z,7.63
2023-03-06T09:44:38.662Z,6.87
2023-03-06T09:47:25.760Z,5.57
2023-03-06T09:50:14.988Z,10.87
2023-03-06T09:52:53.280Z,5.63
2023-03-06T09:55:27.203Z,7.47
2023-03-06T09:58:01.617Z,8.20
2023-03-06T10:00:40.055Z,5.70
2023-03-06T10:03:18.930Z,5.80
2023-03-06T10:05:54.358Z,9.67
2023-03-06T10:08:27.125Z,4.97
2023-03-06T10:11:01.948Z,5.70
2023-03-06T10:13:43.728Z,6.10
2023-03-06T10:16:30.815Z,7.53
2023-03-06T10:19:08.983Z,7.73
2023-03-06T10:22:03.598Z,6.03
2023-03-06T10:24:56.212Z,6.70
2023-03-06T10:27:37.726Z,6.23
2023-03-06T10:30:33.844Z,8.53
2023-03-06T10:33:15.212Z,8.30
2023-03-06T10:35:49.706Z,6.63
2023-03-06T10:38:23.999Z,6.20
2023-03-06T10:41:06.874Z,5.90
2023-03-06T10:43:36.548Z,6.40
2023-03-06T10:46:06.784Z,6.57
2023-03-06T10:48:38.475Z,6.50
2023-03-06T10:51:19.423Z,9.30
2023-03-06T10:53:58.766Z,6.07
2023-03-06T10:56:29.472Z,5.90
2023-03-06T10:59:08.058Z,8.47
2023-03-06T11:01:37.175Z,6.43
2023-03-06T11:04:24.928Z,9.00
2023-03-06T11:07:08.084Z,6.63
2023-03-06T11:09:38.344Z,6.63
2023-03-06T11:12:22.858Z,9.67
2023-03-06T11:15:08.940Z,6.23
2023-03-06T11:17:48.779Z,7.70
2023-03-06T11:20:19.182Z,5.80
2023-03-06T11:22:49.819Z,7.87
2023-03-06T11:25:22.193Z,6.80
2023-03-06T11:27:57.009Z,8.77
2023-03-06T11:30:30.475Z,7.73
2023-03-06T11:33:01.608Z,11.53
2023-03-06T11:35:35.906Z,7.00
2023-03-06T11:38:11.786Z,8.00
2023-03-06T11:40:45.961Z,9.70
2023-03-06T11:43:23.359Z,7.03
2023-03-06T11:45:59.156Z,10.30
2023-03-06T11:48:32.966Z,7.67
2023-03-06T11:51:08.080Z,11.33
2023-03-06T11:53:39.762Z,7.80
2023-03-06T11:56:25.747Z,8.93
2023-03-06T11:59:23.812Z,7.03
2023-03-06T12:02:00.606Z,7.80
2023-03-06T12:04:52.727Z,8.70
2023-03-06T12:07:26.975Z,7.17
2023-03-06T12:10:01.446Z,7.97
2023-03-06T12:12:50.777Z,8.60
2023-03-06T12:15:52.435Z,9.17
2023-03-06T12:18:34.336Z,7.50
2023-03-06T12:21:08.239Z,11.90
2023-03-06T12:24:04.758Z,8.40
2023-03-06T12:26:55.847Z,8.77
2023-03-06T12:29:42.805Z,7.97
2023-03-06T12:32:19.574Z,11.03
2023-03-06T12:35:05.962Z,7.80
2023-03-06T12:37:43.855Z,8.90
2023-03-06T12:40:35.968Z,10.77
2023-03-06T12:43:30.005Z,10.77
2023-03-06T12:46:03.751Z,11.17
2023-03-06T12:48:37.562Z,8.93
2023-03-06T12:51:08.849Z,11.33
2023-03-06T12:53:38.851Z,9.40
2023-03-06T12:56:08.442Z,8.00
2023-03-06T12:58:47.445Z,9.70
2023-03-06T13:01:49.108Z,8.50
2023-03-06T13:05:11.958Z,8.93
2023-03-06T13:07:59.198Z,9.07
2023-03-06T13:10:30.462Z,10.60
2023-03-06T13:13:01.205Z,9.97
2023-03-06T13:15:40.003Z,8.47
2023-03-06T13:18:57.314Z,9.20
2023-03-06T13:22:02.498Z,8.57
2023-03-06T13:24:34.459Z,8.43
2023-03-06T13:27:05.908Z,11.57
2023-03-06T13:30:07.087Z,9.47
2023-03-06T13:32:37.331Z,9.60
2023-03-06T13:35:45.445Z,12.57
2023-03-06T13:38:35.214Z,9.07
2023-03-06T13:41:34.882Z,11.37
2023-03-06T13:44:07.200Z,8.80
2023-03-06T13:46:38.309Z,8.77
2023-03-06T13:49:18.919Z,11.03
2023-03-06T13:52:06.393Z,8.03
2023-03-06T13:54:48.346Z,9.93
2023-03-06T13:57:41.242Z,8.53
2023-03-06T14:00:48.043Z,13.33
2023-03-06T14:04:02.302Z,11.03
2023-03-06T14:06:54.260Z,11.30
2023-03-06T14:09:29.171Z,9.93
2023-03-06T14:12:03.650Z,12.67
2023-03-06T14:14:39.000Z,10.10
2023-03-06T14:17:08.376Z,11.27
2023-03-06T14:19:40.427Z,11.47
2023-03-06T14:22:17.657Z,10.33
2023-03-06T14:24:55.188Z,10.23
2023-03-06T14:27:39.706Z,9.50
2023-03-06T14:30:14.627Z,13.00
2023-03-06T14:32:46.054Z,9.77
2023-03-06T14:35:38.083Z,9.20
2023-03-06T14:38:17.298Z,12.70
2023-03-06T14:40:47.936Z,9.20
2023-03-06T14:43:29.040Z,10.47
2023-03-06T14:46:06.724Z,11.53
2023-03-06T14:48:41.987Z,9.17
2023-03-06T14:51:18.543Z,9.23
2023-03-06T14:53:50.111Z,10.37
2023-03-06T14:56:26.845Z,8.77
2023-03-06T14:58:59.353Z,12.43
2023-03-06T15:01:42.904Z,8.97
2023-03-06T15:07:11.047Z,10.13
2023-03-06T15:09:47.774Z,10.23
2023-03-06T15:12:37.957Z,11.33
2023-03-06T15:15:39.512Z,13.47
2023-03-06T15:18:29.141Z,12.23
2023-03-06T15:21:14.204Z,11.00
2023-03-06T15:23:48.747Z,11.37
2023-03-06T15:26:35.516Z,11.13
2023-03-06T15:29:30.903Z,14.57
2023-03-06T15:32:29.925Z,12.13
2023-03-06T15:35:45.004Z,10.70
2023-03-06T15:38:38.497Z,12.50
2023-03-06T15:41:16.084Z,12.83
2023-03-06T15:46:59.226Z,11.57
2023-03-06T15:49:56.986Z,12.93
2023-03-06T15:52:39.910Z,9.63
2023-03-06T15:55:16.410Z,12.70
2023-03-06T15:58:00.054Z,10.20
2023-03-06T16:00:32.693Z,13.40
2023-03-06T16:03:09.659Z,12.67
2023-03-06T16:05:44.914Z,11.00
2023-03-06T16:08:23.785Z,12.97
2023-03-06T16:10:55.402Z,11.73
2023-03-06T16:13:31.242Z,10.43
2023-03-06T16:16:01.837Z,11.00
2023-03-06T16:21:16.345Z,12.70
2023-03-06T16:23:55.627Z,10.00
2023-03-06T16:26:35.256Z,11.63
2023-03-06T16:29:08.693Z,13.10
2023-03-06T16:34:25.176Z,9.80
2023-03-06T16:37:04.568Z,9.00
2023-03-06T16:39:35.948Z,10.37
2023-03-06T16:42:25.322Z,11.60
2023-03-06T16:45:12.520Z,11.00
2023-03-06T16:47:44.133Z,10.30
2023-03-06T16:50:28.771Z,10.83
2023-03-06T16:52:59.979Z,12.60
2023-03-06T16:55:42.849Z,11.23
2023-03-06T16:58:20.684Z,10.00
2023-03-06T17:00:49.941Z,9.57
2023-03-06T17:03:28.241Z,10.80
2023-03-06T17:06:00.857Z,10.67
2023-03-06T17:08:54.117Z,10.80
2023-03-06T17:11:47.105Z,10.53
2023-03-06T17:14:16.597Z,12.73
2023-03-06T17:16:57.921Z,10.40
2023-03-06T17:19:41.095Z,10.07
2023-03-06T17:22:11.576Z,12.63
2023-03-06T17:25:02.329Z,10.60
2023-03-06T17:27:41.184Z,10.97
2023-03-06T17:30:16.954Z,12.77
2023-03-06T17:33:04.353Z,11.37
2023-03-06T17:35:45.770Z,12.10
2023-03-06T17:38:21.381Z,14.57
2023-03-06T17:41:02.894Z,12.23
2023-03-06T17:43:48.666Z,12.57
2023-03-06T17:46:39.417Z,15.07
2023-03-06T17:49:22.669Z,16.10
2023-03-06T17:51:57.342Z,13.03
2023-03-06T17:54:30.397Z,12.30
2023-03-06T17:57:06.414Z,12.67
2023-03-06T17:59:53.339Z,12.63
2023-03-06T18:02:33.863Z,12.03
2023-03-06T18:05:03.172Z,13.10
2023-03-06T18:07:35.243Z,13.77
2023-03-06T18:10:04.542Z,13.10
2023-03-06T18:12:36.274Z,13.50
2023-03-06T18:15:07.454Z,14.90
2023-03-06T18:17:40.032Z,15.73
2023-03-06T18:20:10.582Z,15.03
2023-03-06T18:22:39.573Z,13.30
2023-03-06T18:25:09.612Z,17.43
2023-03-06T18:27:40.186Z,14.73
2023-03-06T18:30:15.744Z,15.73
2023-03-06T18:32:53.541Z,14.83
2023-03-06T18:35:36.663Z,15.20
2023-03-06T18:38:06.949Z,17.30
2023-03-06T18:40:39.904Z,16.97
2023-03-06T18:43:22.706Z,18.33
2023-03-06T18:46:09.908Z,15.33
2023-03-06T18:48:42.713Z,17.27
2023-03-06T18:51:15.465Z,20.00
2023-03-06T18:53:52.494Z,17.17
2023-03-06T18:56:32.019Z,16.80
2023-03-06T18:59:06.996Z,18.93
2023-03-06T19:01:38.730Z,17.20
2023-03-06T19:04:08.038Z,16.33
2023-03-06T19:06:46.601Z,17.73
2023-03-06T19:09:23.473Z,17.77
2023-03-06T19:11:55.411Z,15.95
2023-03-06T19:14:36.613Z,18.33
2023-03-06T19:17:07.648Z,17.40
2023-03-06T19:19:37.416Z,18.47
2023-03-06T19:24:57.574Z,18.10
2023-03-06T19:27:28.166Z,17.23
2023-03-06T19:29:58.641Z,14.23
2023-03-06T19:32:32.627Z,14.67
2023-03-06T19:35:06.053Z,15.97
2023-03-06T19:37:44.123Z,17.27
2023-03-06T19:40:17.270Z,15.97
2023-03-06T19:42:47.000Z,15.40
2023-03-06T19:45:18.493Z,20.53
2023-03-06T19:48:01.204Z,15.80
2023-03-06T19:50:36.142Z,15.13
2023-03-06T19:53:11.878Z,15.27
2023-03-06T19:55:49.085Z,18.40
2023-03-06T19:58:24.311Z,16.13
2023-03-06T20:00:57.212Z,16.53
2023-03-06T20:04:04.225Z,16.17
2023-03-06T20:06:41.462Z,15.10
2023-03-06T20:09:12.792Z,15.87
2023-03-06T20:11:41.968Z,15.03
2023-03-06T20:14:12.326Z,15.47
2023-03-06T20:16:41.880Z,14.37
2023-03-06T20:19:13.322Z,15.33
2023-03-06T20:21:44.524Z,13.63
2023-03-06T20:24:19.594Z,15.93
2023-03-06T20:26:51.248Z,13.63
2023-03-06T20:29:20.141Z,15.57
2023-03-06T20:31:56.895Z,14.67
2023-03-06T20:34:29.842Z,16.40
2023-03-06T20:36:59.465Z,15.17
2023-03-06T20:39:39.704Z,14.70
2023-03-06T20:42:13.986Z,14.47
2023-03-06T20:44:44.797Z,15.13
2023-03-06T20:47:20.420Z,16.00
2023-03-06T20:50:01.563Z,15.27
2023-03-06T20:52:36.271Z,15.70
2023-03-06T20:55:05.775Z,14.40
2023-03-06T20:57:41.830Z,16.33
2023-03-06T21:00:18.250Z,17.00
2023-03-06T21:02:54.840Z,14.87
2023-03-06T21:05:37.461Z,14.70
2023-03-06T21:08:07.300Z,16.03
2023-03-06T21:10:45.861Z,16.10
2023-03-06T21:16:00.238Z,15.10
2023-03-06T21:18:29.009Z,15.17
2023-03-06T21:21:00.357Z,14.77
2023-03-06T21:23:38.709Z,17.13
2023-03-06T21:26:08.103Z,15.87
2023-03-06T21:28:40.926Z,15.70
2023-03-06T21:31:13.710Z,15.83
2023-03-06T21:33:54.133Z,16.57
2023-03-06T21:36:30.259Z,16.70
2023-03-06T21:39:28.644Z,16.23
2023-03-06T21:42:00.494Z,16.83
2023-03-06T21:44:52.733Z,15.70
2023-03-06T21:48:18.324Z,19.13
2023-03-06T21:50:59.526Z,14.80
2023-03-06T21:53:45.258Z,18.03
2023-03-06T21:56:18.619Z,17.43
2023-03-06T21:58:47.955Z,14.87
2023-03-06T22:01:22.082Z,15.73
2023-03-06T22:04:02.550Z,15.30
2023-03-06T22:06:34.649Z,16.60
2023-03-06T22:09:17.768Z,16.63
2023-03-06T22:11:57.432Z,14.53
2023-03-06T22:14:32.951Z,18.10
2023-03-06T22:17:04.386Z,15.73
2023-03-06T22:19:36.603Z,15.17
2023-03-06T22:22:16.022Z,13.93
2023-03-06T22:24:48.221Z,14.73
2023-03-06T22:27:17.707Z,17.17
2023-03-06T22:29:47.581Z,14.63
2023-03-06T22:32:16.754Z,15.13
2023-03-06T22:34:47.920Z,15.70
2023-03-06T22:37:19.284Z,15.00
2023-03-06T22:39:56.535Z,14.20
2023-03-06T22:42:30.882Z,16.37
2023-03-06T22:45:07.514Z,12.63
2023-03-06T22:47:45.316Z,14.77
2023-03-06T22:50:16.819Z,14.77
2023-03-06T22:52:50.822Z,12.17
2023-03-06T22:55:25.442Z,16.03
2023-03-06T22:58:02.858Z,12.40
2023-03-06T23:00:35.028Z,15.30
2023-03-06T23:03:08.026Z,13.00
2023-03-06T23:05:53.956Z,13.40
2023-03-06T23:08:23.396Z,13.77
2023-03-06T23:11:09.794Z,11.53
2023-03-06T23:13:39.119Z,12.57
2023-03-06T23:16:13.841Z,10.70
2023-03-06T23:18:44.498Z,11.67
2023-03-06T23:21:15.118Z,10.17
2023-03-06T23:23:51.328Z,10.87
2023-03-06T23:26:30.749Z,11.63
2023-03-06T23:29:13.701Z,10.37
2023-03-06T23:31:44.659Z,9.83
2023-03-06T23:34:13.881Z,10.30
2023-03-06T23:36:43.282Z,11.20
2023-03-06T23:39:14.090Z,11.13
2023-03-06T23:41:47.441Z,11.03
2023-03-06T23:44:23.121Z,10.97
2023-03-06T23:47:00.007Z,9.00
2023-03-06T23:49:29.276Z,9.97
2023-03-06T23:52:00.904Z,9.60
2023-03-06T23:54:33.286Z,8.73
2023-03-06T23:57:09.549Z,9.37
2023-03-06T23:59:39.097Z,10.17
